Time;durP1;ratioP1;P1;durP2;ratioP2;P2;SDS_P1;SDS_P2;PMS_P1;PMS_P2;Temp;Humidity;BMP_temperature;BMP_pressure;BME280_temperature;BME280_humidity;BME280_pressure;Samples;Min_cycle;Max_cycle;Signal;HPM_P1;HPM_P2
2022/11/24 00:00:14;;;;;;;18.15;12.55;;;;;;;2.89;69.45;100123.86;1812635;76;21066;-60
2022/11/24 00:02:41;;;;;;;13.75;6.58;;;;;;;2.86;69.32;100114.48;1823043;76;21699;-61
2022/11/24 00:05:09;;;;;;;14.73;7.08;;;;;;;2.82;69.33;100110.83;1809598;77;21496;-60
2022/11/24 00:07:37;;;;;;;10.70;5.97;;;;;;;2.77;69.34;100109.75;1809542;76;21062;-61
2022/11/24 00:10:05;;;;;;;11.83;7.25;;;;;;;2.71;69.33;100105.73;1804291;77;21808;-60
2022/11/24 00:12:32;;;;;;;14.58;7.47;;;;;;;2.69;69.33;100098.48;1801951;77;21505;-60
2022/11/24 00:14:58;;;;;;;11.68;5.83;;;;;;;2.73;69.25;100097.86;1806276;76;21149;-61
2022/11/24 00:17:25;;;;;;;10.95;4.58;;;;;;;2.78;69.25;100097.98;1798924;76;21088;-61
2022/11/24 00:19:52;;;;;;;18.25;6.78;;;;;;;2.82;69.18;100078.34;1819212;76;21036;-61
2022/11/24 00:22:18;;;;;;;13.15;7.62;;;;;;;2.81;69.25;100081.84;1815084;77;21136;-62
2022/11/24 00:24:45;;;;;;;13.50;6.83;;;;;;;2.77;69.48;100079.44;1813132;77;21470;-58
2022/11/24 00:27:12;;;;;;;11.00;6.22;;;;;;;2.78;69.58;100081.56;1817050;76;21038;-61
2022/11/24 00:29:38;;;;;;;12.63;7.22;;;;;;;2.77;69.66;100076.84;1807933;77;21072;-60
2022/11/24 00:32:05;;;;;;;17.27;7.67;;;;;;;2.74;69.54;100070.50;1811189;77;21050;-60
2022/11/24 00:34:32;;;;;;;11.40;5.42;;;;;;;2.68;69.56;100076.00;1805431;76;21152;-60
2022/11/24 00:36:59;;;;;;;9.10;4.83;;;;;;;2.68;69.40;100076.00;1824125;76;21061;-60
2022/11/24 00:39:26;;;;;;;10.40;5.75;;;;;;;2.70;69.23;100074.16;1816231;77;21540;-60
2022/11/24 00:41:52;;;;;;;17.77;12.58;;;;;;;2.73;69.27;100071.41;1825102;76;21026;-61
2022/11/24 00:44:19;;;;;;;14.28;6.10;;;;;;;2.78;69.45;100068.10;1811473;77;21026;-61
2022/11/24 00:46:46;;;;;;;12.28;6.60;;;;;;;2.83;69.78;100070.94;1759195;79;21240;-61
2022/11/24 01:01:56;;;;;;;22.07;12.82;;;;;;;3.79;67.87;100042.66;1815336;75;67018;-50
2022/11/24 01:04:23;;;;;;;19.45;12.00;;;;;;;3.89;67.46;100045.58;1722829;81;21051;-51
2022/11/24 01:06:49;;;;;;;15.28;6.47;;;;;;;3.84;67.30;100046.31;1721083;81;21140;-49
2022/11/24 01:09:16;;;;;;;20.02;12.93;;;;;;;3.77;67.44;100051.03;1704354;82;21148;-50
2022/11/24 01:12:02;;;;;;;12.18;5.97;;;;;;;3.69;67.55;100054.52;1713800;82;20914;-50
2022/11/24 01:14:30;;;;;;;16.57;8.40;;;;;;;3.60;67.57;100041.58;1695483;82;20994;-50
2022/11/24 01:16:58;;;;;;;12.23;6.47;;;;;;;3.47;67.50;100031.48;1698836;82;21049;-49
2022/11/24 01:19:25;;;;;;;17.95;12.63;;;;;;;3.34;67.49;100020.91;1717799;81;22026;-50
2022/11/24 01:21:54;;;;;;;15.38;6.92;;;;;;;3.19;67.64;100033.00;1710602;81;21120;-50
2022/11/24 01:24:20;;;;;;;12.20;5.47;;;;;;;3.11;67.82;100020.88;1677404;83;21147;-51
2022/11/24 01:26:47;;;;;;;11.22;7.15;;;;;;;3.11;67.88;100021.74;1696051;82;21076;-50
2022/11/24 01:29:14;;;;;;;20.92;5.97;;;;;;;3.11;67.93;100013.94;1722923;81;21610;-52
2022/11/24 01:31:41;;;;;;;12.95;6.87;;;;;;;3.12;68.20;100009.57;1680091;83;21229;-50
2022/11/24 01:34:07;;;;;;;16.02;7.08;;;;;;;3.07;68.45;100013.72;1704194;81;21060;-50
2022/11/24 01:36:37;;;;;;;13.65;6.78;;;;;;;3.02;68.56;100004.50;1719583;81;21081;-51
2022/11/24 01:39:04;;;;;;;13.00;6.72;;;;;;;2.98;68.67;100006.44;1723756;81;21612;-49
2022/11/24 01:41:33;;;;;;;15.83;7.55;;;;;;;2.93;68.84;99999.35;1672830;83;21168;-50
2022/11/24 01:43:59;;;;;;;11.70;5.62;;;;;;;2.90;68.88;99969.63;1714777;81;21552;-49
2022/11/24 01:46:40;;;;;;;14.65;6.67;;;;;;;2.79;68.85;99976.69;1714470;81;21156;-49
2022/11/24 01:49:21;;;;;;;11.63;6.92;;;;;;;2.74;68.94;99963.97;1717678;81;21081;-49
2022/11/24 01:51:54;;;;;;;13.53;7.12;;;;;;;2.75;69.00;99962.20;1723045;80;21115;-50
2022/11/24 01:54:25;;;;;;;13.43;5.80;;;;;;;2.77;69.19;99953.41;1715216;81;21836;-49
2022/11/24 01:56:56;;;;;;;10.20;6.15;;;;;;;2.81;69.33;99936.33;1713419;81;21265;-49
2022/11/24 01:59:23;;;;;;;17.77;13.08;;;;;;;2.77;69.45;99941.72;1716371;81;21078;-50
2022/11/24 02:01:50;;;;;;;11.57;5.33;;;;;;;2.73;69.68;99922.02;1718583;81;21041;-50
2022/11/24 02:04:22;;;;;;;12.25;7.90;;;;;;;2.69;69.70;99925.72;1716067;81;21157;-49
2022/11/24 02:06:48;;;;;;;14.80;7.95;;;;;;;2.63;69.92;99928.63;1688667;83;21095;-50
2022/11/24 02:09:21;;;;;;;18.00;7.55;;;;;;;2.63;70.03;99935.59;1717948;81;21122;-50
2022/11/24 02:11:50;;;;;;;14.53;6.62;;;;;;;2.58;69.95;99929.34;1709004;81;21080;-50
2022/11/24 02:14:17;;;;;;;13.53;6.40;;;;;;;2.60;69.86;99930.92;1704482;82;21067;-49
2022/11/24 02:16:46;;;;;;;11.43;6.65;;;;;;;2.67;69.88;99930.60;1693007;83;21091;-49
2022/11/24 02:19:31;;;;;;;14.03;7.30;;;;;;;2.75;69.95;99921.93;1684014;82;21067;-50
2022/11/24 02:21:59;;;;;;;14.07;7.40;;;;;;;2.77;69.99;99916.18;1687730;81;21147;-51
2022/11/24 02:24:31;;;;;;;12.37;6.85;;;;;;;2.74;70.01;99917.20;1696569;83;21074;-50
2022/11/24 02:26:58;;;;;;;12.82;5.95;;;;;;;2.74;70.06;99909.84;1715938;81;21058;-49
2022/11/24 02:29:25;;;;;;;14.83;7.80;;;;;;;2.70;69.98;99905.28;1720987;81;22290;-51
2022/11/24 02:31:57;;;;;;;11.53;6.33;;;;;;;2.63;69.95;99916.95;1723043;81;21086;-50
2022/11/24 02:34:25;;;;;;;13.35;6.97;;;;;;;2.59;70.11;99907.66;1696845;83;21167;-50
2022/11/24 02:36:52;;;;;;;12.05;5.85;;;;;;;2.56;70.23;99912.55;1712667;81;21085;-49
2022/11/24 02:39:19;;;;;;;11.18;5.83;;;;;;;2.65;70.26;99912.97;1715383;81;21053;-50
2022/11/24 02:41:51;;;;;;;13.35;6.37;;;;;;;2.73;70.18;99928.51;1713289;81;21177;-51
2022/11/24 02:44:18;;;;;;;14.98;7.83;;;;;;;2.80;70.23;99922.52;1691343;83;21083;-49
2022/11/24 02:46:44;;;;;;;12.68;6.58;;;;;;;2.87;70.33;99915.22;1687003;83;21765;-49
2022/11/24 02:49:12;;;;;;;13.15;7.37;;;;;;;2.92;70.44;99907.53;1718636;81;21060;-51
2022/11/24 02:51:39;;;;;;;20.15;14.03;;;;;;;2.93;70.18;99891.50;1711801;82;21083;-50
2022/11/24 02:54:06;;;;;;;14.53;7.10;;;;;;;2.90;70.09;99892.96;1710920;81;21059;-50
2022/11/24 02:56:33;;;;;;;13.05;6.20;;;;;;;2.86;69.84;99889.70;1719701;81;21098;-50
2022/11/24 02:58:59;;;;;;;13.25;7.08;;;;;;;2.77;69.83;99885.86;1714609;82;21107;-50
2022/11/24 03:01:26;;;;;;;19.30;8.23;;;;;;;2.73;70.02;99892.13;1696429;82;21132;-50
2022/11/24 03:03:53;;;;;;;17.82;9.18;;;;;;;2.70;70.00;99896.67;1718995;82;22393;-50
2022/11/24 03:06:19;;;;;;;12.58;7.15;;;;;;;2.73;70.03;99897.33;1724935;81;21065;-50
2022/11/24 03:08:47;;;;;;;15.85;7.65;;;;;;;2.78;69.93;99874.52;1710788;81;21014;-49
2022/11/24 03:11:13;;;;;;;13.05;6.47;;;;;;;2.81;69.70;99880.47;1720409;81;21788;-50
2022/11/24 03:13:40;;;;;;;13.40;6.95;;;;;;;2.77;69.91;99894.09;1687621;83;21098;-49
2022/11/24 03:16:09;;;;;;;15.40;7.35;;;;;;;2.76;70.10;99888.55;1693512;83;21094;-50
2022/11/24 03:19:50;;;;;;;13.85;7.10;;;;;;;2.68;70.57;99864.75;1792339;78;22405;-66
2022/11/24 03:22:18;;;;;;;13.38;6.35;;;;;;;2.73;70.25;99865.33;1764468;80;21023;-67
2022/11/24 03:24:44;;;;;;;14.45;7.78;;;;;;;2.70;70.17;99866.31;1714964;82;22248;-67
2022/11/24 03:27:11;;;;;;;15.40;7.65;;;;;;;2.67;70.04;99856.09;1708997;83;21125;-67
2022/11/24 03:29:37;;;;;;;11.53;7.15;;;;;;;2.67;70.04;99851.37;1694424;83;21046;-68
2022/11/24 03:32:04;;;;;;;15.25;7.92;;;;;;;2.72;69.95;99840.26;1721730;82;21065;-67
2022/11/24 03:34:32;;;;;;;14.35;6.42;;;;;;;2.77;69.90;99831.30;1724734;82;21030;-67
2022/11/24 03:36:59;;;;;;;14.07;7.20;;;;;;;2.80;69.91;99830.27;1710713;82;21163;-68
2022/11/24 03:39:26;;;;;;;14.73;7.78;;;;;;;2.82;70.13;99832.78;1687256;82;21046;-67
2022/11/24 03:41:52;;;;;;;18.55;8.55;;;;;;;2.82;70.15;99831.48;1731248;82;21578;-67
2022/11/24 03:44:19;;;;;;;12.75;7.40;;;;;;;2.79;70.18;99826.84;1707395;82;21094;-67
2022/11/24 03:46:46;;;;;;;12.93;6.97;;;;;;;2.78;70.12;99839.92;1711947;82;21026;-67
2022/11/24 03:49:13;;;;;;;13.72;6.78;;;;;;;2.71;70.14;99845.92;1721633;81;21156;-68
2022/11/24 03:51:39;;;;;;;12.68;7.95;;;;;;;2.65;70.15;99837.16;1713858;82;21086;-67
2022/11/24 03:54:07;;;;;;;11.65;6.83;;;;;;;2.63;70.19;99838.19;1741216;80;21054;-67
2022/11/24 03:56:33;;;;;;;14.65;7.08;;;;;;;2.69;70.15;99833.48;1729684;81;21027;-67
2022/11/24 03:59:00;;;;;;;12.35;6.67;;;;;;;2.75;70.23;99833.13;1713614;82;21117;-67
2022/11/24 04:01:27;;;;;;;14.98;6.83;;;;;;;2.82;70.30;99834.91;1709638;82;21158;-67
2022/11/24 04:03:53;;;;;;;13.65;8.83;;;;;;;2.84;70.29;99836.98;1712906;82;21121;-68
2022/11/24 04:06:20;;;;;;;20.80;13.90;;;;;;;2.84;70.31;99824.44;1713438;82;21023;-67
2022/11/24 04:08:47;;;;;;;16.23;7.03;;;;;;;2.83;70.32;99819.70;1734001;81;21034;-68
2022/11/24 04:12:42;;;;;;;14.13;7.17;;;;;;;2.82;70.32;99816.72;1709372;82;21118;-67
2022/11/24 04:13:42;;;;;;;16.02;7.65;;;;;;;2.77;70.24;99823.50;1710961;81;21159;-68
2022/11/24 04:16:09;;;;;;;14.47;6.97;;;;;;;2.72;70.31;99819.03;1707702;81;21075;-67
2022/11/24 04:18:36;;;;;;;13.83;6.12;;;;;;;2.73;70.28;99815.96;1711236;82;21551;-68
2022/11/24 04:21:03;;;;;;;12.18;6.53;;;;;;;2.78;70.08;99832.13;1730769;81;21026;-67
2022/11/24 04:23:30;;;;;;;11.80;6.28;;;;;;;2.83;70.00;99834.47;1715361;82;21664;-67
2022/11/24 04:25:57;;;;;;;12.43;7.05;;;;;;;2.90;70.16;99837.09;1709814;82;21160;-68
2022/11/24 04:28:24;;;;;;;16.30;7.62;;;;;;;2.98;70.07;99853.09;1691693;83;20988;-68
2022/11/24 04:30:51;;;;;;;20.15;14.18;;;;;;;2.99;70.25;99856.04;1679556;83;21579;-67
2022/11/24 04:33:17;;;;;;;14.47;7.03;;;;;;;3.01;70.25;99848.16;1710098;82;20947;-68
2022/11/24 04:35:44;;;;;;;16.50;7.78;;;;;;;3.01;70.17;99852.91;1706383;82;20959;-68
2022/11/24 04:38:11;;;;;;;19.10;7.58;;;;;;;3.01;70.23;99852.91;1715078;82;22208;-68
2022/11/24 04:40:37;;;;;;;15.20;8.40;;;;;;;2.99;70.19;99845.64;1712510;82;21095;-67
2022/11/24 04:43:04;;;;;;;22.65;14.75;;;;;;;2.97;70.03;99847.50;1704033;83;21039;-67
2022/11/24 04:45:31;;;;;;;16.52;6.83;;;;;;;2.95;70.11;99838.96;1710471;82;21456;-67
2022/11/24 04:47:57;;;;;;;10.95;5.58;;;;;;;2.95;70.03;99831.99;1708368;82;21069;-68
2022/11/24 04:50:24;;;;;;;15.30;6.95;;;;;;;3.02;69.90;99838.15;1718868;82;21120;-68
2022/11/24 04:52:51;;;;;;;16.73;7.45;;;;;;;3.07;69.75;99833.52;1713136;82;21511;-68
2022/11/24 04:55:18;;;;;;;13.10;6.87;;;;;;;3.11;69.82;99837.61;1711849;82;21737;-67
2022/11/24 04:57:44;;;;;;;22.37;15.28;;;;;;;3.17;69.88;99841.16;1700170;83;21066;-68
2022/11/24 05:00:13;;;;;;;19.65;7.95;;;;;;;3.16;69.90;99841.63;1714197;82;21050;-68
2022/11/24 05:02:39;;;;;;;16.40;8.45;;;;;;;3.18;70.09;99844.59;1712751;82;21084;-68
2022/11/24 05:05:07;;;;;;;18.07;8.38;;;;;;;3.13;70.02;99840.50;1714509;82;21050;-68
2022/11/24 05:07:34;;;;;;;15.48;9.43;;;;;;;3.09;70.06;99837.72;1704878;82;21069;-67
2022/11/24 05:14:58;;;;;;;16.73;12.07;;;;;;;2.92;70.67;99842.56;1870942;75;22076;-66
2022/11/24 05:17:33;;;;;;;13.28;6.55;;;;;;;3.01;70.11;99842.96;1847770;75;21511;-66
2022/11/24 05:19:59;;;;;;;12.68;6.67;;;;;;;3.07;69.98;99846.05;1840890;75;21310;-65
2022/11/24 05:22:28;;;;;;;14.03;7.62;;;;;;;3.13;70.03;99844.41;1854330;74;21030;-66
2022/11/24 05:24:54;;;;;;;12.35;6.53;;;;;;;3.21;70.22;99848.31;1857585;75;20998;-66
2022/11/24 05:27:21;;;;;;;12.60;6.42;;;;;;;3.23;70.17;99847.75;1866530;73;20981;-66
2022/11/24 05:29:47;;;;;;;14.85;6.60;;;;;;;3.20;70.15;99846.66;1850730;75;20939;-64
2022/11/24 05:32:14;;;;;;;19.62;13.45;;;;;;;3.13;70.03;99841.80;1844299;75;21513;-65
2022/11/24 05:34:41;;;;;;;11.50;6.30;;;;;;;3.07;70.14;99849.95;1851995;74;21005;-66
2022/11/24 05:37:07;;;;;;;13.20;5.92;;;;;;;3.04;70.35;99844.09;1861510;74;20942;-66
2022/11/24 05:39:35;;;;;;;12.53;5.85;;;;;;;2.98;70.42;99857.81;1838769;75;21001;-66
2022/11/24 05:42:39;;;;;;;13.75;7.03;;;;;;;2.94;70.60;99861.52;1858538;75;21033;-67
2022/11/24 05:44:32;;;;;;;11.33;5.92;;;;;;;2.98;70.59;99873.41;1844523;75;21117;-66
2022/11/24 05:47:00;;;;;;;13.98;6.28;;;;;;;3.07;70.42;99869.44;1840770;76;21064;-66
2022/11/24 05:49:27;;;;;;;12.53;6.03;;;;;;;3.14;70.23;99870.79;1848834;75;21037;-66
2022/11/24 05:51:54;;;;;;;16.67;11.45;;;;;;;3.24;70.21;99868.94;1846111;74;22101;-66
2022/11/24 05:54:21;;;;;;;11.83;5.25;;;;;;;3.28;70.28;99867.38;1855958;75;21049;-66
2022/11/24 05:56:47;;;;;;;13.03;5.83;;;;;;;3.35;70.58;99860.06;1860454;75;22124;-66
2022/11/24 05:59:14;;;;;;;12.78;6.30;;;;;;;3.41;70.52;99866.66;1857530;75;21570;-66
2022/11/24 06:01:41;;;;;;;10.75;5.30;;;;;;;3.42;70.46;99866.57;1873885;74;21007;-66
2022/11/24 06:04:09;;;;;;;17.75;12.45;;;;;;;3.39;70.35;99868.05;1867480;74;21033;-67
2022/11/24 06:06:36;;;;;;;12.30;6.97;;;;;;;3.35;70.33;99863.96;1850422;75;21017;-67
2022/11/24 06:09:09;;;;;;;14.50;7.00;;;;;;;3.33;70.33;99871.03;1794574;76;68992;-48
2022/11/24 06:11:36;;;;;;;12.43;6.10;;;;;;;3.24;70.18;99868.94;1798797;79;21092;-51
2022/11/24 06:14:04;;;;;;;14.98;7.12;;;;;;;3.16;70.29;99874.13;1792751;79;21058;-49
2022/11/24 06:16:30;;;;;;;12.88;6.65;;;;;;;3.18;70.25;99870.59;1792940;78;21663;-49
2022/11/24 06:18:57;;;;;;;10.35;5.58;;;;;;;3.25;70.40;99873.23;1785288;78;21082;-48
2022/11/24 06:21:23;;;;;;;9.93;5.12;;;;;;;3.33;70.41;99884.86;1795699;79;21284;-48
2022/11/24 06:23:50;;;;;;;18.77;12.00;;;;;;;3.41;70.46;99879.19;1778742;79;21042;-51
2022/11/24 06:26:17;;;;;;;14.13;7.03;;;;;;;3.50;70.49;99878.66;1779295;78;21035;-49
2022/11/24 06:28:43;;;;;;;8.83;5.22;;;;;;;3.57;70.57;99877.84;1786478;79;21471;-48
2022/11/24 06:31:10;;;;;;;12.25;5.95;;;;;;;3.62;70.44;99878.41;1797454;79;20984;-49
2022/11/24 06:33:37;;;;;;;11.63;5.67;;;;;;;3.62;70.25;99887.52;1794459;79;21199;-50
2022/11/24 06:36:06;;;;;;;13.03;7.30;;;;;;;3.58;69.95;99887.78;1789754;78;21091;-49
2022/11/24 06:38:34;;;;;;;10.40;5.03;;;;;;;3.47;69.87;99876.72;1777113;79;21013;-49
2022/11/24 06:41:08;;;;;;;11.15;5.47;;;;;;;3.42;70.10;99887.37;1784271;79;20991;-49
2022/11/24 06:43:35;;;;;;;9.60;5.03;;;;;;;3.38;70.09;99874.20;1780668;79;21722;-50
2022/11/24 06:46:02;;;;;;;13.05;6.42;;;;;;;3.33;70.13;99878.83;1786537;79;21237;-48
2022/11/24 06:48:30;;;;;;;12.45;6.10;;;;;;;3.35;70.21;99875.66;1788833;78;21102;-49
2022/11/24 06:51:04;;;;;;;10.88;5.58;;;;;;;3.43;70.07;99881.27;1790960;79;21108;-49
2022/11/24 06:53:38;;;;;;;12.95;5.65;;;;;;;3.51;70.09;99868.65;1786286;78;21730;-49
2022/11/24 06:56:11;;;;;;;19.10;11.57;;;;;;;3.58;70.18;99869.13;1773922;79;21577;-50
2022/11/24 06:58:43;;;;;;;11.95;4.85;;;;;;;3.67;70.25;99880.74;1780552;79;21124;-49
2022/11/24 07:01:24;;;;;;;10.43;5.33;;;;;;;3.67;70.12;99876.37;1786045;79;21016;-49
2022/11/24 07:03:52;;;;;;;11.60;5.72;;;;;;;3.65;70.18;99870.42;1776445;78;21102;-49
2022/11/24 07:06:19;;;;;;;11.30;5.28;;;;;;;3.65;70.15;99863.09;1778743;79;21094;-49
2022/11/24 07:08:45;;;;;;;12.50;5.05;;;;;;;3.58;70.03;99869.13;1776275;78;21716;-49
2022/11/24 07:11:15;;;;;;;13.55;5.60;;;;;;;3.54;70.08;99866.31;1783737;79;21231;-50
2022/11/24 07:13:44;;;;;;;12.40;5.05;;;;;;;3.48;70.23;99858.86;1782862;79;21168;-48
2022/11/24 07:16:17;;;;;;;10.28;5.15;;;;;;;3.43;70.37;99861.75;1785633;78;21085;-49
2022/11/24 07:18:44;;;;;;;9.15;4.78;;;;;;;3.46;70.34;99863.32;1783884;79;21141;-49
2022/11/24 07:21:11;;;;;;;11.45;4.78;;;;;;;3.52;70.08;99870.30;1789286;79;21043;-50
2022/11/24 07:23:38;;;;;;;14.93;10.08;;;;;;;3.59;70.03;99866.88;1776749;79;21269;-49
2022/11/24 07:26:07;;;;;;;9.93;3.83;;;;;;;3.69;70.04;99864.09;1779170;79;21561;-48
2022/11/24 07:28:35;;;;;;;15.55;10.05;;;;;;;3.78;70.04;99860.09;1781732;79;21007;-48
2022/11/24 07:31:09;;;;;;;10.18;4.28;;;;;;;3.80;70.11;99857.41;1784290;78;21076;-49
2022/11/24 07:33:37;;;;;;;9.95;4.40;;;;;;;3.81;70.01;99861.22;1793075;79;26570;-48
2022/11/24 07:36:05;;;;;;;12.50;5.55;;;;;;;3.83;70.15;99860.69;1786428;79;21272;-49
2022/11/24 07:38:32;;;;;;;12.63;5.53;;;;;;;3.85;70.05;99864.03;1779921;79;21030;-50
2022/11/24 07:41:07;;;;;;;9.78;5.35;;;;;;;3.82;69.84;99861.61;1774366;78;21029;-49
2022/11/24 07:43:35;;;;;;;9.88;4.53;;;;;;;3.81;69.92;99862.52;1785417;79;21086;-60
2022/11/24 07:46:02;;;;;;;15.63;9.38;;;;;;;3.81;69.96;99859.92;1786202;79;21058;-59
2022/11/24 07:48:29;;;;;;;11.50;4.33;;;;;;;3.84;69.70;99858.44;1777400;79;21148;-60
2022/11/24 07:50:59;;;;;;;10.88;4.53;;;;;;;3.93;69.55;99864.84;1785671;78;21133;-58
2022/11/24 07:53:26;;;;;;;14.07;8.73;;;;;;;3.95;69.42;99866.06;1786547;79;21133;-58
2022/11/24 07:55:54;;;;;;;10.03;4.17;;;;;;;3.96;69.69;99864.66;1786897;78;21050;-58
2022/11/24 07:58:21;;;;;;;11.33;4.80;;;;;;;3.95;69.62;99869.52;1787961;79;21062;-59
2022/11/24 08:00:48;;;;;;;11.35;4.85;;;;;;;3.94;69.63;99871.73;1792929;79;21126;-58
2022/11/24 08:03:15;;;;;;;15.95;10.05;;;;;;;3.90;69.61;99865.89;1779825;79;21186;-58
2022/11/24 08:05:41;;;;;;;9.13;4.30;;;;;;;3.85;69.55;99868.38;1787807;79;21352;-59
2022/11/24 08:08:08;;;;;;;7.33;3.37;;;;;;;3.84;69.52;99870.16;1791193;79;21616;-59
2022/11/24 08:10:36;;;;;;;9.13;3.87;;;;;;;3.91;69.44;99871.92;1778333;79;21552;-59
2022/11/24 08:13:03;;;;;;;8.15;4.00;;;;;;;3.96;69.36;99874.25;1795977;78;21121;-60
2022/11/24 08:15:30;;;;;;;11.28;7.67;;;;;;;3.99;69.33;99871.47;1790138;78;21069;-60
2022/11/24 08:18:01;;;;;;;9.05;4.22;;;;;;;4.00;69.54;99871.82;1780398;79;21024;-59
2022/11/24 08:20:28;;;;;;;12.68;8.28;;;;;;;4.03;69.68;99877.67;1786106;78;21140;-60
2022/11/24 08:22:58;;;;;;;11.80;4.90;;;;;;;4.02;69.58;99873.41;1777764;79;21656;-60
2022/11/24 08:25:31;;;;;;;9.48;4.28;;;;;;;4.02;69.66;99876.49;1776725;79;21184;-58
2022/11/24 08:27:56;;;;;;;10.70;5.42;;;;;;;3.99;69.49;99872.77;1778969;79;21157;-58
2022/11/24 08:30:22;;;;;;;11.78;8.10;;;;;;;3.91;69.52;99871.45;1784692;79;21137;-57
2022/11/24 08:32:50;;;;;;;9.38;4.20;;;;;;;3.85;69.64;99874.44;1784808;78;21113;-59
2022/11/24 08:35:17;;;;;;;9.40;4.22;;;;;;;3.87;69.67;99869.97;1789573;78;21465;-59
2022/11/24 08:37:43;;;;;;;8.88;4.40;;;;;;;3.95;69.48;99864.76;1788711;78;21209;-59
2022/11/24 08:40:12;;;;;;;13.03;8.18;;;;;;;4.00;69.37;99871.82;1777876;79;21098;-59
2022/11/24 08:42:38;;;;;;;13.22;4.75;;;;;;;4.04;69.45;99868.11;1794921;78;21054;-58
2022/11/24 08:45:06;;;;;;;7.58;3.83;;;;;;;4.04;69.58;99859.00;1784194;79;21122;-59
2022/11/24 08:47:33;;;;;;;13.45;8.55;;;;;;;4.03;69.62;99856.84;1772289;79;21023;-57
2022/11/24 08:49:59;;;;;;;13.72;8.63;;;;;;;4.00;69.55;99860.11;1784877;79;21162;-57
2022/11/24 08:52:26;;;;;;;10.38;4.67;;;;;;;3.96;69.58;99860.77;1785722;79;21525;-58
2022/11/24 08:54:53;;;;;;;8.50;3.83;;;;;;;3.92;69.71;99861.89;1779427;79;21034;-58
2022/11/24 08:57:19;;;;;;;11.20;4.45;;;;;;;3.88;69.85;99863.84;1784685;79;21090;-59
2022/11/24 08:59:46;;;;;;;9.45;4.58;;;;;;;3.84;69.81;99861.52;1794433;79;21147;-58
2022/11/24 09:02:14;;;;;;;10.55;3.72;;;;;;;3.81;69.80;99866.42;1780531;78;21312;-59
2022/11/24 09:04:41;;;;;;;9.08;3.47;;;;;;;3.84;69.73;99857.61;1784315;79;20976;-59
2022/11/24 09:07:07;;;;;;;13.18;7.12;;;;;;;3.94;69.82;99852.69;1769032;79;21035;-58
2022/11/24 09:09:34;;;;;;;8.20;3.75;;;;;;;4.01;69.78;99856.59;1778126;79;21018;-58
2022/11/24 09:12:01;;;;;;;8.88;3.92;;;;;;;4.09;70.00;99858.25;1786935;79;21580;-59
2022/11/24 09:14:28;;;;;;;10.20;3.05;;;;;;;4.15;70.17;99857.86;1789187;79;21064;-56
2022/11/24 09:16:55;;;;;;;10.75;7.12;;;;;;;4.21;70.02;99854.88;1787877;79;21038;-58
2022/11/24 09:19:21;;;;;;;10.10;3.92;;;;;;;4.18;69.71;99847.25;1779303;79;21549;-58
2022/11/24 09:21:48;;;;;;;10.35;4.50;;;;;;;4.13;69.71;99846.70;1786004;79;21526;-57
2022/11/24 09:24:15;;;;;;;12.43;7.55;;;;;;;4.11;69.90;99851.18;1775011;79;21057;-57
2022/11/24 09:26:42;;;;;;;9.20;4.03;;;;;;;4.09;69.87;99847.84;1775770;79;21251;-58
2022/11/24 09:29:09;;;;;;;7.17;3.75;;;;;;;4.06;69.69;99841.52;1782638;78;21149;-59
2022/11/24 09:31:36;;;;;;;7.85;3.67;;;;;;;4.09;69.64;99847.36;1754198;79;21083;-58
2022/11/24 09:34:08;;;;;;;11.60;7.80;;;;;;;4.14;69.74;99840.58;1788876;79;21177;-58
2022/11/24 09:36:35;;;;;;;10.80;3.72;;;;;;;4.23;69.93;99843.90;1779609;79;21571;-58
2022/11/24 09:39:02;;;;;;;14.75;9.10;;;;;;;4.26;70.02;99835.90;1775318;79;21921;-58
2022/11/24 09:41:55;;;;;;;10.03;4.08;;;;;;;4.30;69.92;99837.02;1781374;79;21062;-58
2022/11/24 09:44:33;;;;;;;11.00;4.30;;;;;;;4.30;69.85;99833.11;1791290;78;21383;-57
2022/11/24 09:47:23;;;;;;;12.20;8.60;;;;;;;4.25;69.72;99833.39;1785240;78;21024;-57
2022/11/24 09:49:58;;;;;;;11.35;4.40;;;;;;;4.18;69.72;99826.90;1783882;79;21073;-57
2022/11/24 09:53:00;;;;;;;13.72;4.20;;;;;;;4.16;69.62;99826.99;1776520;79;21216;-57
2022/11/24 09:55:35;;;;;;;10.40;4.15;;;;;;;4.20;69.68;99823.73;1781226;79;21029;-57
2022/11/24 09:58:26;;;;;;;9.43;5.17;;;;;;;4.27;69.78;99817.22;1779758;79;21094;-58
2022/11/24 10:00:53;;;;;;;10.53;4.55;;;;;;;4.33;69.85;99818.59;1763057;79;21061;-58
2022/11/24 10:03:28;;;;;;;12.23;8.00;;;;;;;4.32;69.88;99814.30;1778648;79;21123;-59
2022/11/24 10:05:54;;;;;;;11.07;3.43;;;;;;;4.30;69.91;99818.30;1775482;79;21209;-59
2022/11/24 10:08:42;;;;;;;11.97;7.60;;;;;;;4.30;69.99;99813.57;1784021;79;21089;-60
2022/11/24 10:11:14;;;;;;;6.95;3.00;;;;;;;4.31;70.05;99823.07;1776960;79;21074;-59
2022/11/24 10:14:20;;;;;;;8.63;4.42;;;;;;;4.30;69.89;99823.98;1773912;79;21062;-57
2022/11/24 10:17:44;;;;;;;9.65;3.80;;;;;;;4.23;69.83;99821.77;1789535;78;21094;-58
2022/11/24 10:20:26;;;;;;;7.35;2.72;;;;;;;4.22;69.86;99817.50;1787351;79;21236;-57
2022/11/24 10:23:34;;;;;;;9.13;3.20;;;;;;;4.27;69.76;99824.56;1772950;79;21050;-57
2022/11/24 10:26:10;;;;;;;7.12;2.87;;;;;;;4.31;69.78;99824.38;1783625;78;21046;-57
2022/11/24 10:28:44;;;;;;;9.57;4.33;;;;;;;4.37;70.01;99826.13;1780730;79;21058;-57
2022/11/24 10:31:31;;;;;;;11.38;7.12;;;;;;;4.41;70.14;99824.16;1787519;79;21142;-57
2022/11/24 10:34:17;;;;;;;9.08;4.30;;;;;;;4.39;70.09;99819.52;1781815;79;21237;-58
2022/11/24 10:37:07;;;;;;;;;;;;;;;4.39;70.11;99824.25;1781069;78;21033;-55
2022/11/24 10:40:11;;;;;;;7.42;3.98;;;;;;;4.36;70.17;99817.11;1781322;79;20207;-56
2022/11/24 10:42:39;;;;;;;6.97;3.25;;;;;;;4.31;70.17;99816.08;1775304;78;21339;-57
2022/11/24 10:45:13;;;;;;;8.20;3.55;;;;;;;4.23;70.17;99818.33;1788282;79;21607;-57
2022/11/24 10:47:42;;;;;;;7.47;3.35;;;;;;;4.18;70.15;99813.41;1782235;79;21249;-56
2022/11/24 10:50:21;;;;;;;8.88;5.85;;;;;;;4.25;70.05;99821.22;1782824;79;21107;-58
2022/11/24 10:53:09;;;;;;;9.73;4.22;;;;;;;4.32;70.09;99829.94;1781015;79;21027;-56
2022/11/24 10:55:59;;;;;;;9.40;4.22;;;;;;;4.39;70.14;99824.73;1782185;79;21062;-56
2022/11/24 10:58:28;;;;;;;9.70;3.02;;;;;;;4.42;70.31;99829.72;1775595;79;21040;-59
2022/11/24 11:00:58;;;;;;;8.90;4.10;;;;;;;4.41;70.33;99828.06;1780816;79;21169;-59
2022/11/24 11:03:29;;;;;;;11.18;7.20;;;;;;;4.39;70.21;99824.73;1783749;79;21101;-58
2022/11/24 11:06:24;;;;;;;9.18;4.12;;;;;;;4.36;70.35;99830.12;1783204;78;21031;-58
2022/11/24 11:09:11;;;;;;;6.87;3.52;;;;;;;4.40;70.41;99825.08;1782845;79;21042;-60
2022/11/24 11:11:38;;;;;;;6.05;3.95;;;;;;;4.47;70.06;99825.05;1783560;79;21066;-58
2022/11/24 11:14:06;;;;;;;9.75;6.45;;;;;;;4.48;69.68;99824.13;1774844;79;21147;-58
2022/11/24 11:16:50;;;;;;;8.73;3.67;;;;;;;4.53;69.98;99823.37;1779280;78;21069;-58
2022/11/24 11:19:42;;;;;;;11.38;7.65;;;;;;;4.53;70.21;99821.23;1749061;79;21094;-59
2022/11/24 11:22:16;;;;;;;8.10;4.50;;;;;;;4.57;70.32;99824.86;1775272;79;21730;-59
2022/11/24 11:24:44;;;;;;;7.50;3.95;;;;;;;4.56;70.19;99819.27;1782345;79;21517;-48
2022/11/24 11:27:23;;;;;;;12.28;8.08;;;;;;;4.54;70.18;99819.84;1779309;79;21141;-49
2022/11/24 11:29:50;;;;;;;11.38;4.70;;;;;;;4.50;70.19;99823.56;1781230;79;21004;-48
2022/11/24 11:32:22;;;;;;;10.70;4.97;;;;;;;4.50;70.14;99819.66;1775253;79;21095;-49
2022/11/24 11:34:50;;;;;;;11.35;6.90;;;;;;;4.54;69.98;99811.16;1777457;79;20931;-50
2022/11/24 11:37:18;;;;;;;9.45;3.10;;;;;;;4.59;69.96;99811.70;1779871;79;21626;-50
2022/11/24 11:39:50;;;;;;;8.83;3.83;;;;;;;4.59;70.08;99808.66;1778487;79;21028;-48
2022/11/24 11:42:21;;;;;;;12.98;8.08;;;;;;;4.55;70.05;99807.16;1783013;79;21097;-48
2022/11/24 11:45:00;;;;;;;11.93;7.95;;;;;;;4.48;70.15;99818.09;1776570;79;21446;-48
2022/11/24 11:47:49;;;;;;;9.00;3.90;;;;;;;4.44;70.36;99808.34;1776431;78;21642;-49
2022/11/24 11:50:19;;;;;;;9.18;3.98;;;;;;;4.43;70.42;99811.87;1780859;79;20994;-48
2022/11/24 11:53:14;;;;;;;7.72;3.47;;;;;;;4.41;70.30;99812.44;1782418;78;21090;-48
2022/11/24 11:56:02;;;;;;;7.47;3.20;;;;;;;4.46;70.35;99812.98;1780360;79;21082;-48
2022/11/24 11:59:05;;;;;;;12.53;8.25;;;;;;;4.54;70.44;99811.16;1775481;79;21519;-48
2022/11/24 12:02:06;;;;;;;7.08;3.50;;;;;;;4.55;70.36;99807.16;1773487;79;21070;-48
2022/11/24 12:04:51;;;;;;;8.40;4.50;;;;;;;4.48;70.64;99816.79;1784021;79;21039;-47
2022/11/24 12:07:32;;;;;;;9.18;4.17;;;;;;;4.41;71.06;99815.04;1776545;79;21249;-47